Time;durP1;ratioP1;P1;durP2;ratioP2;P2;SDS_P1;SDS_P2;PMS_P1;PMS_P2;Temp;Humidity;BMP_temperature;BMP_pressure;BME280_temperature;BME280_humidity;BME280_pressure;Samples;Min_cycle;Max_cycle;Signal;HPM_P1;HPM_P2
2022/07/20 04:02:20;;;;;;;1999.90;999.90;;;;;;;;;;5311225;23;20247;-70
2022/07/20 04:05:05;;;;;;;1999.90;999.90;;;;;;;;;;5021263;28;20560;-70
2022/07/20 04:07:50;;;;;;;1999.90;999.90;;;;;;;;;;5011324;28;20684;-66
2022/07/20 04:10:35;;;;;;;1999.90;999.90;;;;;;;;;;5011320;28;20742;-69
2022/07/20 04:13:20;;;;;;;1999.90;999.90;;;;;;;;;;5007360;28;20214;-70
2022/07/20 04:16:05;;;;;;;1999.90;999.90;;;;;;;;;;5008611;28;20206;-70
2022/07/20 04:18:52;;;;;;;1999.90;999.90;;;;;;;;;;5010665;28;20273;-70
2022/07/20 04:21:37;;;;;;;1999.90;999.90;;;;;;;;;;5007182;28;20226;-70
2022/07/20 04:24:21;;;;;;;1999.90;999.90;;;;;;;;;;5010840;28;20210;-68
2022/07/20 04:27:06;;;;;;;1999.90;999.90;;;;;;;;;;5010890;28;20210;-66
2022/07/20 04:29:51;;;;;;;1999.90;999.90;;;;;;;;;;5006539;28;20732;-70
2022/07/20 04:32:36;;;;;;;1999.90;999.90;;;;;;;;;;5010609;28;20328;-70
2022/07/20 04:35:22;;;;;;;1999.90;999.90;;;;;;;;;;5015335;28;20775;-70
2022/07/20 04:38:07;;;;;;;1999.90;999.90;;;;;;;;;;5010516;28;20245;-71
2022/07/20 04:40:53;;;;;;;1999.90;999.90;;;;;;;;;;5010649;28;20440;-70
2022/07/20 04:43:38;;;;;;;1999.90;999.90;;;;;;;;;;5004108;28;20701;-70
2022/07/20 04:46:23;;;;;;;1999.90;999.90;;;;;;;;;;5010100;28;20235;-70
2022/07/20 04:49:08;;;;;;;1999.90;999.90;;;;;;;;;;5012244;28;20206;-70
2022/07/20 04:51:54;;;;;;;1999.90;999.90;;;;;;;;;;4999555;28;20238;-70
2022/07/20 04:54:39;;;;;;;1999.90;999.90;;;;;;;;;;4996193;28;20207;-70
2022/07/20 04:57:24;;;;;;;1999.90;999.90;;;;;;;;;;4995681;28;20499;-70
2022/07/20 05:00:11;;;;;;;1999.90;999.90;;;;;;;;;;5002897;28;20208;-70
2022/07/20 05:02:57;;;;;;;1999.90;999.90;;;;;;;;;;5004321;28;20222;-70
2022/07/20 05:05:42;;;;;;;1999.90;999.90;;;;;;;;;;5010479;28;20593;-69
2022/07/20 05:08:28;;;;;;;1999.90;999.90;;;;;;;;;;4995684;28;20214;-70
2022/07/20 05:11:13;;;;;;;1999.90;999.90;;;;;;;;;;4998759;28;20236;-70
2022/07/20 05:13:58;;;;;;;1999.90;999.90;;;;;;;;;;5003165;28;20210;-69
2022/07/20 05:16:43;;;;;;;1999.90;999.90;;;;;;;;;;5008070;28;20233;-70
2022/07/20 05:19:28;;;;;;;1999.90;999.90;;;;;;;;;;5010798;28;20225;-69
2022/07/20 05:22:15;;;;;;;1999.90;999.90;;;;;;;;;;5010936;28;20277;-70
2022/07/20 05:25:01;;;;;;;1999.90;999.90;;;;;;;;;;5012595;28;20213;-69
2022/07/20 05:27:46;;;;;;;1999.90;999.90;;;;;;;;;;5009728;28;20210;-69
2022/07/20 05:30:31;;;;;;;1999.90;999.90;;;;;;;;;;5010965;28;20276;-69
2022/07/20 05:33:16;;;;;;;1999.90;999.90;;;;;;;;;;5013167;28;20930;-68
2022/07/20 05:36:02;;;;;;;1999.90;999.90;;;;;;;;;;5012440;28;20701;-70
2022/07/20 05:38:47;;;;;;;1999.90;999.90;;;;;;;;;;5006432;28;20301;-70
2022/07/20 05:41:33;;;;;;;1999.90;999.90;;;;;;;;;;4995225;28;20307;-69
2022/07/20 05:44:18;;;;;;;1999.90;999.90;;;;;;;;;;4994850;28;20214;-69
2022/07/20 05:47:04;;;;;;;1999.90;999.90;;;;;;;;;;4995179;28;20584;-69
2022/07/20 05:49:49;;;;;;;1999.90;999.90;;;;;;;;;;4997689;28;20210;-70
2022/07/20 05:52:34;;;;;;;1999.90;999.90;;;;;;;;;;5011208;28;20407;-69
2022/07/20 05:55:19;;;;;;;1999.90;999.90;;;;;;;;;;5013347;28;20281;-68
2022/07/20 05:58:06;;;;;;;1999.90;999.90;;;;;;;;;;5013014;28;20378;-70
2022/07/20 06:00:51;;;;;;;1999.90;999.90;;;;;;;;;;5011472;28;20233;-67
2022/07/20 06:03:36;;;;;;;1999.90;999.90;;;;;;;;;;5009930;28;20211;-70
2022/07/20 06:06:21;;;;;;;1999.90;999.90;;;;;;;;;;5010429;28;20211;-69
2022/07/20 06:09:07;;;;;;;1999.90;999.90;;;;;;;;;;5012455;28;20334;-69
2022/07/20 06:11:52;;;;;;;1999.90;999.90;;;;;;;;;;5012429;28;20281;-69
2022/07/20 06:14:38;;;;;;;1999.90;999.90;;;;;;;;;;5013168;28;20680;-70
2022/07/20 06:17:23;;;;;;;1999.90;999.90;;;;;;;;;;5012622;28;20257;-69
2022/07/20 06:20:09;;;;;;;1999.90;999.90;;;;;;;;;;5012854;28;20249;-69
2022/07/20 06:22:54;;;;;;;1999.90;999.90;;;;;;;;;;5010543;28;20692;-69
2022/07/20 06:25:39;;;;;;;1999.90;999.90;;;;;;;;;;5012147;28;20407;-70
2022/07/20 06:28:24;;;;;;;1999.90;999.90;;;;;;;;;;5010697;28;20293;-68
2022/07/20 06:31:11;;;;;;;1999.90;999.90;;;;;;;;;;5009958;28;20229;-70
2022/07/20 06:33:56;;;;;;;1999.90;999.90;;;;;;;;;;5010683;28;20277;-70
2022/07/20 06:36:44;;;;;;;1999.90;999.90;;;;;;;;;;5012777;28;20230;-71
2022/07/20 06:39:29;;;;;;;1999.90;999.90;;;;;;;;;;5009695;28;20222;-70
2022/07/20 06:42:14;;;;;;;1999.90;999.90;;;;;;;;;;5012132;28;20408;-70
2022/07/20 06:44:58;;;;;;;1999.90;999.90;;;;;;;;;;5012301;28;20804;-70
2022/07/20 06:47:44;;;;;;;1999.90;999.90;;;;;;;;;;5012071;28;20218;-70
2022/07/20 06:50:29;;;;;;;1999.90;999.90;;;;;;;;;;5008551;28;20600;-70
2022/07/20 06:53:14;;;;;;;1999.90;999.90;;;;;;;;;;5013568;28;20222;-70
2022/07/20 06:56:00;;;;;;;1999.90;999.90;;;;;;;;;;5012927;28;20295;-70
2022/07/20 06:58:45;;;;;;;1999.90;999.90;;;;;;;;;;5005337;28;20215;-70
2022/07/20 07:01:30;;;;;;;1999.90;999.90;;;;;;;;;;5004546;28;20233;-69
2022/07/20 07:04:16;;;;;;;1999.90;999.90;;;;;;;;;;5009127;28;20210;-70
2022/07/20 07:07:02;;;;;;;1999.90;999.90;;;;;;;;;;5005097;28;20206;-70
2022/07/20 07:09:47;;;;;;;1999.90;999.90;;;;;;;;;;5011020;28;20696;-70
2022/07/20 07:12:32;;;;;;;1999.90;999.90;;;;;;;;;;5009979;28;20254;-71
2022/07/20 07:15:17;;;;;;;1999.90;999.90;;;;;;;;;;5012749;28;20912;-71
2022/07/20 07:18:02;;;;;;;1999.90;999.90;;;;;;;;;;5011448;28;20284;-70
2022/07/20 07:20:48;;;;;;;1999.90;999.90;;;;;;;;;;5012847;28;20369;-70
2022/07/20 07:23:33;;;;;;;1999.90;999.90;;;;;;;;;;5011862;28;20577;-70
2022/07/20 07:26:19;;;;;;;1999.90;999.90;;;;;;;;;;5010394;28;20292;-71
2022/07/20 07:29:04;;;;;;;1999.90;999.90;;;;;;;;;;5012338;28;20210;-70
2022/07/20 07:31:49;;;;;;;1999.90;999.90;;;;;;;;;;5012158;28;20261;-70
2022/07/20 07:34:34;;;;;;;1999.90;999.90;;;;;;;;;;4993215;28;20255;-70
2022/07/20 07:37:21;;;;;;;1999.90;999.90;;;;;;;;;;4993085;28;20242;-70
2022/07/20 07:40:06;;;;;;;1999.90;999.90;;;;;;;;;;4996581;28;20447;-70
2022/07/20 07:42:51;;;;;;;1999.90;999.90;;;;;;;;;;5003137;28;20207;-70
2022/07/20 07:45:36;;;;;;;1999.90;999.90;;;;;;;;;;5005887;28;20285;-70
2022/07/20 07:48:21;;;;;;;1999.90;999.90;;;;;;;;;;5004534;28;20214;-70
2022/07/20 07:51:06;;;;;;;1999.90;999.90;;;;;;;;;;5011145;28;20604;-69
2022/07/20 07:53:52;;;;;;;1999.90;999.90;;;;;;;;;;5004589;28;20226;-70
2022/07/20 07:56:37;;;;;;;1999.90;999.90;;;;;;;;;;4999614;28;20581;-70
2022/07/20 07:59:22;;;;;;;1999.90;999.90;;;;;;;;;;5008553;28;20273;-70
2022/07/20 08:02:07;;;;;;;1999.90;999.90;;;;;;;;;;5010539;28;20250;-69
2022/07/20 08:04:52;;;;;;;1999.90;999.90;;;;;;;;;;5012396;28;20338;-69
2022/07/20 08:07:39;;;;;;;1999.90;999.90;;;;;;;;;;5012243;28;20210;-70
2022/07/20 08:10:26;;;;;;;1999.90;999.90;;;;;;;;;;5011863;28;20206;-69
2022/07/20 08:13:11;;;;;;;1999.90;999.90;;;;;;;;;;5008917;28;20705;-69
2022/07/20 08:15:56;;;;;;;1999.90;999.90;;;;;;;;;;5008322;28;20214;-70
2022/07/20 08:18:41;;;;;;;1999.90;999.90;;;;;;;;;;4997303;28;20215;-69
2022/07/20 08:21:26;;;;;;;1999.90;999.90;;;;;;;;;;5011625;28;20354;-71
2022/07/20 08:24:14;;;;;;;1999.90;999.90;;;;;;;;;;5011200;28;20282;-70
2022/07/20 08:27:00;;;;;;;1999.90;999.90;;;;;;;;;;5003694;28;20210;-69
2022/07/20 08:29:45;;;;;;;1999.90;999.90;;;;;;;;;;5011596;28;20202;-71
2022/07/20 08:32:30;;;;;;;1999.90;999.90;;;;;;;;;;5010936;28;20432;-71
2022/07/20 08:35:15;;;;;;;1999.90;999.90;;;;;;;;;;5010714;28;20213;-71
2022/07/20 08:38:01;;;;;;;1999.90;999.90;;;;;;;;;;5011721;28;20210;-71
2022/07/20 08:40:46;;;;;;;1999.90;999.90;;;;;;;;;;5011878;28;20342;-70
2022/07/20 08:43:32;;;;;;;1999.90;999.90;;;;;;;;;;5011369;28;20233;-70
2022/07/20 08:46:17;;;;;;;1999.90;999.90;;;;;;;;;;5008739;28;20215;-71
2022/07/20 08:49:02;;;;;;;1999.90;999.90;;;;;;;;;;4999086;28;20693;-70
2022/07/20 08:51:49;;;;;;;1999.90;999.90;;;;;;;;;;5007508;28;20741;-71
2022/07/20 08:54:34;;;;;;;1999.90;999.90;;;;;;;;;;5005869;28;20202;-71
2022/07/20 08:57:19;;;;;;;1999.90;999.90;;;;;;;;;;5012019;28;20202;-71
2022/07/20 09:00:06;;;;;;;1999.90;999.90;;;;;;;;;;5010578;28;20231;-71
2022/07/20 09:02:52;;;;;;;1999.90;999.90;;;;;;;;;;5006908;28;20223;-71
2022/07/20 09:05:38;;;;;;;1999.90;999.90;;;;;;;;;;4992228;28;20206;-71
2022/07/20 09:08:23;;;;;;;1999.90;999.90;;;;;;;;;;4992051;28;20278;-71
2022/07/20 09:11:08;;;;;;;1999.90;999.90;;;;;;;;;;4991717;28;20219;-70
2022/07/20 09:13:54;;;;;;;1999.90;999.90;;;;;;;;;;5009115;28;20812;-72
2022/07/20 09:16:43;;;;;;;1999.90;999.90;;;;;;;;;;5010458;28;20312;-70
2022/07/20 09:19:28;;;;;;;1999.90;999.90;;;;;;;;;;5008023;28;20210;-71
2022/07/20 09:22:30;;;;;;;1999.90;999.90;;;;;;;;;;5015273;28;20477;-71
2022/07/20 09:25:15;;;;;;;1999.90;999.90;;;;;;;;;;5009821;28;20508;-71
2022/07/20 09:28:01;;;;;;;1999.90;999.90;;;;;;;;;;5004290;28;20344;-70
2022/07/20 09:30:50;;;;;;;1999.90;999.90;;;;;;;;;;5015114;28;20226;-70
2022/07/20 09:33:37;;;;;;;1999.90;999.90;;;;;;;;;;5015175;28;20206;-71
2022/07/20 09:36:23;;;;;;;1999.90;999.90;;;;;;;;;;5013861;28;20266;-71
2022/07/20 09:39:08;;;;;;;1999.90;999.90;;;;;;;;;;5006592;28;20579;-71
2022/07/20 09:41:56;;;;;;;1999.90;999.90;;;;;;;;;;5013940;28;20230;-72
2022/07/20 09:44:41;;;;;;;1999.90;999.90;;;;;;;;;;5003423;28;20277;-71
2022/07/20 09:47:26;;;;;;;1999.90;999.90;;;;;;;;;;5004572;28;20206;-71
2022/07/20 09:50:27;;;;;;;1999.90;999.90;;;;;;;;;;5006663;28;20408;-71
2022/07/20 09:53:12;;;;;;;1999.90;999.90;;;;;;;;;;5014358;28;20597;-71
2022/07/20 09:55:57;;;;;;;1999.90;999.90;;;;;;;;;;5014713;28;20573;-72
2022/07/20 09:58:43;;;;;;;1999.90;999.90;;;;;;;;;;5013257;28;20226;-71
2022/07/20 10:01:29;;;;;;;1999.90;999.90;;;;;;;;;;5002823;28;20784;-72
2022/07/20 10:04:15;;;;;;;1999.90;999.90;;;;;;;;;;4994964;28;20206;-72
2022/07/20 10:07:01;;;;;;;1999.90;999.90;;;;;;;;;;4994961;28;20207;-73
2022/07/20 10:09:47;;;;;;;1999.90;999.90;;;;;;;;;;4994358;28;20207;-72
2022/07/20 10:12:32;;;;;;;1999.90;999.90;;;;;;;;;;5012624;28;20233;-72
2022/07/20 10:15:19;;;;;;;1999.90;999.90;;;;;;;;;;4993926;28;20409;-70
2022/07/20 10:18:07;;;;;;;1999.90;999.90;;;;;;;;;;5010117;28;20226;-72
2022/07/20 10:20:52;;;;;;;1999.90;999.90;;;;;;;;;;5014063;28;20238;-71
2022/07/20 10:23:39;;;;;;;1999.90;999.90;;;;;;;;;;5014123;28;20250;-72
2022/07/20 10:26:25;;;;;;;1999.90;999.90;;;;;;;;;;5014141;28;20254;-71
2022/07/20 10:29:10;;;;;;;1999.90;999.90;;;;;;;;;;5013717;28;20226;-71
2022/07/20 10:31:56;;;;;;;1999.90;999.90;;;;;;;;;;5012655;28;20226;-71
2022/07/20 10:34:42;;;;;;;1999.90;999.90;;;;;;;;;;5006331;28;20706;-72
2022/07/20 10:37:29;;;;;;;1999.90;999.90;;;;;;;;;;5007207;28;20206;-71
2022/07/20 10:40:16;;;;;;;1999.90;999.90;;;;;;;;;;5012431;28;20265;-72
2022/07/20 10:43:12;;;;;;;1999.90;999.90;;;;;;;;;;5013817;28;20687;-72
2022/07/20 10:45:57;;;;;;;1999.90;999.90;;;;;;;;;;5012325;28;20408;-72
2022/07/20 10:48:46;;;;;;;1999.90;999.90;;;;;;;;;;5010682;28;20757;-72
2022/07/20 10:51:31;;;;;;;1999.90;999.90;;;;;;;;;;5007031;28;20218;-72
2022/07/20 10:54:34;;;;;;;1999.90;999.90;;;;;;;;;;5012316;28;20218;-72
2022/07/20 10:57:21;;;;;;;1999.90;999.90;;;;;;;;;;5008707;28;20205;-72
2022/07/20 11:00:08;;;;;;;1999.90;999.90;;;;;;;;;;5012249;28;20670;-72
2022/07/20 11:02:53;;;;;;;1999.90;999.90;;;;;;;;;;5010978;28;20214;-72
2022/07/20 11:05:38;;;;;;;1999.90;999.90;;;;;;;;;;5013281;28;20200;-71
2022/07/20 11:08:23;;;;;;;1999.90;999.90;;;;;;;;;;5012030;28;20411;-71
2022/07/20 11:11:14;;;;;;;1999.90;999.90;;;;;;;;;;5013191;28;20226;-70
2022/07/20 11:14:01;;;;;;;1999.90;999.90;;;;;;;;;;5011359;28;20299;-71
2022/07/20 11:16:54;;;;;;;1999.90;999.90;;;;;;;;;;5006884;28;20214;-71
2022/07/20 11:19:39;;;;;;;1999.90;999.90;;;;;;;;;;5005822;28;20709;-72
2022/07/20 11:22:25;;;;;;;1999.90;999.90;;;;;;;;;;5012959;28;20293;-71
2022/07/20 11:25:10;;;;;;;1999.90;999.90;;;;;;;;;;5013110;28;20202;-72
2022/07/20 11:28:02;;;;;;;1999.90;999.90;;;;;;;;;;5012822;28;20210;-71
2022/07/20 11:30:49;;;;;;;1999.90;999.90;;;;;;;;;;5004921;28;20283;-72
2022/07/20 11:33:36;;;;;;;1999.90;999.90;;;;;;;;;;5001033;28;20227;-71
2022/07/20 11:36:22;;;;;;;1999.90;999.90;;;;;;;;;;4994363;28;20661;-71
2022/07/20 11:39:07;;;;;;;1999.90;999.90;;;;;;;;;;5011001;28;20692;-72
2022/07/20 11:41:54;;;;;;;1999.90;999.90;;;;;;;;;;5010927;28;20777;-72
2022/07/20 11:44:39;;;;;;;1999.90;999.90;;;;;;;;;;5003831;28;20214;-72
2022/07/20 11:47:25;;;;;;;1999.90;999.90;;;;;;;;;;5007855;28;20628;-72
2022/07/20 11:50:11;;;;;;;1999.90;999.90;;;;;;;;;;5011058;28;20207;-72
2022/07/20 11:52:56;;;;;;;1999.90;999.90;;;;;;;;;;5009247;28;20364;-71
2022/07/20 11:55:41;;;;;;;1999.90;999.90;;;;;;;;;;5009473;28;20794;-72
2022/07/20 11:58:27;;;;;;;1999.90;999.90;;;;;;;;;;5004056;28;20211;-72
2022/07/20 12:01:13;;;;;;;1999.90;999.90;;;;;;;;;;5005277;28;20242;-72
2022/07/20 12:04:01;;;;;;;1999.90;999.90;;;;;;;;;;5010623;28;20297;-71
2022/07/20 12:06:46;;;;;;;1999.90;999.90;;;;;;;;;;5007961;28;20215;-70
2022/07/20 12:09:35;;;;;;;1999.90;999.90;;;;;;;;;;5012059;28;20190;-71
2022/07/20 12:15:29;;;;;;;1999.90;999.90;;;;;;;;;;5011491;28;20218;-71
2022/07/20 12:18:14;;;;;;;1999.90;999.90;;;;;;;;;;5009107;28;20215;-71
2022/07/20 12:21:01;;;;;;;1999.90;999.90;;;;;;;;;;5007612;28;20230;-71
2022/07/20 12:23:48;;;;;;;1999.90;999.90;;;;;;;;;;5012542;28;20202;-71
2022/07/20 12:26:35;;;;;;;1999.90;999.90;;;;;;;;;;5011073;28;20333;-71
2022/07/20 12:29:21;;;;;;;1999.90;999.90;;;;;;;;;;5005638;28;20582;-71
2022/07/20 12:32:07;;;;;;;1999.90;999.90;;;;;;;;;;5011853;28;20752;-71
2022/07/20 12:34:53;;;;;;;1999.90;999.90;;;;;;;;;;5005938;28;20785;-71
2022/07/20 12:37:49;;;;;;;1999.90;999.90;;;;;;;;;;5002502;28;20209;-71
2022/07/20 12:40:37;;;;;;;1999.90;999.90;;;;;;;;;;5009248;28;20207;-71
2022/07/20 12:43:29;;;;;;;1999.90;999.90;;;;;;;;;;5008388;28;20229;-71
2022/07/20 12:46:14;;;;;;;1999.90;999.90;;;;;;;;;;5003497;28;20273;-70
2022/07/20 12:48:59;;;;;;;1999.90;999.90;;;;;;;;;;5006349;28;20242;-71
2022/07/20 12:51:44;;;;;;;1999.90;999.90;;;;;;;;;;5003611;28;20238;-70
2022/07/20 12:54:30;;;;;;;1999.90;999.90;;;;;;;;;;5015809;28;20289;-70
2022/07/20 12:57:16;;;;;;;1999.90;999.90;;;;;;;;;;5015653;28;20206;-70
2022/07/20 13:00:01;;;;;;;1999.90;999.90;;;;;;;;;;5013103;28;20588;-70
2022/07/20 13:02:46;;;;;;;1999.90;999.90;;;;;;;;;;5006851;28;20219;-70
2022/07/20 13:05:31;;;;;;;1999.90;999.90;;;;;;;;;;5016026;28;20211;-70
2022/07/20 13:08:17;;;;;;;1999.90;999.90;;;;;;;;;;4996236;28;20211;-70
2022/07/20 13:11:03;;;;;;;1999.90;999.90;;;;;;;;;;5005008;28;20784;-70
2022/07/20 13:13:49;;;;;;;1999.90;999.90;;;;;;;;;;5011069;28;20331;-71
2022/07/20 13:16:34;;;;;;;1999.90;999.90;;;;;;;;;;5015500;28;20206;-71
2022/07/20 13:19:19;;;;;;;1999.90;999.90;;;;;;;;;;5012537;28;20231;-71
2022/07/20 13:22:03;;;;;;;1999.90;999.90;;;;;;;;;;5012477;28;20278;-71
2022/07/20 13:24:48;;;;;;;1999.90;999.90;;;;;;;;;;5007840;28;20210;-71
2022/07/20 13:27:36;;;;;;;1999.90;999.90;;;;;;;;;;4995740;28;20299;-71
2022/07/20 13:30:21;;;;;;;1999.90;999.90;;;;;;;;;;5007909;28;20741;-71
2022/07/20 13:33:06;;;;;;;1999.90;999.90;;;;;;;;;;5011873;28;20227;-71
2022/07/20 13:35:51;;;;;;;1999.90;999.90;;;;;;;;;;5007921;28;20218;-70
2022/07/20 13:38:36;;;;;;;1999.90;999.90;;;;;;;;;;5009112;28;20209;-71
2022/07/20 13:41:22;;;;;;;1999.90;999.90;;;;;;;;;;5014865;28;20273;-70
2022/07/20 13:44:09;;;;;;;1999.90;999.90;;;;;;;;;;5015065;28;20202;-71
2022/07/20 13:46:54;;;;;;;1999.90;999.90;;;;;;;;;;5013941;28;20292;-71
2022/07/20 13:49:39;;;;;;;1999.90;999.90;;;;;;;;;;5009568;28;20214;-70
2022/07/20 13:52:25;;;;;;;1999.90;999.90;;;;;;;;;;5013806;28;20306;-70
2022/07/20 13:55:10;;;;;;;1999.90;999.90;;;;;;;;;;5010125;28;20206;-70
2022/07/20 13:57:55;;;;;;;1999.90;999.90;;;;;;;;;;5004489;28;20422;-71
2022/07/20 14:00:41;;;;;;;1999.90;999.90;;;;;;;;;;5012432;28;20257;-71
2022/07/20 14:03:26;;;;;;;1999.90;999.90;;;;;;;;;;5009860;28;20582;-70
2022/07/20 14:06:11;;;;;;;1999.90;999.90;;;;;;;;;;5004083;28;20211;-71
2022/07/20 14:08:56;;;;;;;1999.90;999.90;;;;;;;;;;5006601;28;20338;-71
2022/07/20 14:11:41;;;;;;;1999.90;999.90;;;;;;;;;;5012029;28;20230;-70
2022/07/20 14:14:26;;;;;;;1999.90;999.90;;;;;;;;;;5011517;28;20230;-73
2022/07/20 14:17:13;;;;;;;1999.90;999.90;;;;;;;;;;5005970;28;20342;-72
2022/07/20 14:19:58;;;;;;;1999.90;999.90;;;;;;;;;;5012890;28;20737;-72
2022/07/20 14:22:43;;;;;;;1999.90;999.90;;;;;;;;;;5011940;28;20571;-72
2022/07/20 14:25:28;;;;;;;1999.90;999.90;;;;;;;;;;5008864;28;20215;-72
2022/07/20 14:28:13;;;;;;;1999.90;999.90;;;;;;;;;;5012355;28;20257;-71
2022/07/20 14:30:58;;;;;;;1999.90;999.90;;;;;;;;;;5012029;28;20234;-72
2022/07/20 14:33:44;;;;;;;1999.90;999.90;;;;;;;;;;5013608;28;20218;-71
2022/07/20 14:36:29;;;;;;;1999.90;999.90;;;;;;;;;;5010591;28;20879;-71
2022/07/20 14:39:14;;;;;;;1999.90;999.90;;;;;;;;;;5010581;28;20349;-71
2022/07/20 14:41:59;;;;;;;1999.90;999.90;;;;;;;;;;5009028;28;20225;-71
2022/07/20 14:44:44;;;;;;;1999.90;999.90;;;;;;;;;;5006903;28;20250;-71
2022/07/20 14:47:29;;;;;;;1999.90;999.90;;;;;;;;;;4994106;28;20223;-71
2022/07/20 14:50:15;;;;;;;1999.90;999.90;;;;;;;;;;5004169;28;20222;-71
2022/07/20 14:53:03;;;;;;;1999.90;999.90;;;;;;;;;;5012980;28;20222;-69
2022/07/20 14:55:48;;;;;;;1999.90;999.90;;;;;;;;;;5013549;28;20215;-70
2022/07/20 14:58:33;;;;;;;1999.90;999.90;;;;;;;;;;5013030;28;20200;-69
2022/07/20 15:01:18;;;;;;;1999.90;999.90;;;;;;;;;;5008620;28;20375;-70
2022/07/20 15:04:04;;;;;;;1999.90;999.90;;;;;;;;;;5010281;28;20206;-71
2022/07/20 15:06:50;;;;;;;1999.90;999.90;;;;;;;;;;5005502;28;20440;-70
2022/07/20 15:09:35;;;;;;;1999.90;999.90;;;;;;;;;;5010571;28;20219;-70
2022/07/20 15:12:20;;;;;;;1999.90;999.90;;;;;;;;;;5005936;28;20346;-71
2022/07/20 15:15:05;;;;;;;1999.90;999.90;;;;;;;;;;5005622;28;20223;-71
2022/07/20 15:17:49;;;;;;;1999.90;999.90;;;;;;;;;;5011207;28;20597;-71
2022/07/20 15:20:34;;;;;;;1999.90;999.90;;;;;;;;;;5008781;28;20210;-71
2022/07/20 15:23:21;;;;;;;1999.90;999.90;;;;;;;;;;5010288;28;20202;-71
2022/07/20 15:26:06;;;;;;;1999.90;999.90;;;;;;;;;;5011579;28;20720;-71
2022/07/20 15:28:51;;;;;;;1999.90;999.90;;;;;;;;;;5011347;28;20573;-71
2022/07/20 15:31:36;;;;;;;1999.90;999.90;;;;;;;;;;5001125;28;20924;-71
2022/07/20 15:34:21;;;;;;;1999.90;999.90;;;;;;;;;;4993557;28;20310;-71
2022/07/20 15:37:06;;;;;;;1999.90;999.90;;;;;;;;;;5009396;28;20206;-71
2022/07/20 15:39:53;;;;;;;1999.90;999.90;;;;;;;;;;5004662;28;20219;-71
2022/07/20 15:42:39;;;;;;;1999.90;999.90;;;;;;;;;;4992910;28;20226;-72
2022/07/20 15:45:24;;;;;;;1999.90;999.90;;;;;;;;;;4993116;28;20215;-71
2022/07/20 15:48:09;;;;;;;1999.90;999.90;;;;;;;;;;5005228;28;20335;-71
2022/07/20 15:50:54;;;;;;;1999.90;999.90;;;;;;;;;;4996274;28;20298;-72
2022/07/20 15:53:39;;;;;;;1999.90;999.90;;;;;;;;;;4997839;28;20233;-71
2022/07/20 15:57:18;;;;;;;1999.90;999.90;;;;;;;;;;5008804;28;20210;-71
2022/07/20 15:59:31;;;;;;;1999.90;999.90;;;;;;;;;;5008279;28;20214;-71
2022/07/20 16:02:16;;;;;;;1999.90;999.90;;;;;;;;;;5010822;28;20290;-71
2022/07/20 16:05:02;;;;;;;1999.90;999.90;;;;;;;;;;4994947;28;20258;-71
2022/07/20 16:07:47;;;;;;;1999.90;999.90;;;;;;;;;;4995610;28;20210;-71
2022/07/20 16:10:32;;;;;;;1999.90;999.90;;;;;;;;;;5010233;28;20885;-72
2022/07/20 16:13:19;;;;;;;1999.90;999.90;;;;;;;;;;5008778;28;20750;-71
2022/07/20 16:16:04;;;;;;;1999.90;999.90;;;;;;;;;;5009290;28;20586;-71
2022/07/20 16:18:49;;;;;;;1999.90;999.90;;;;;;;;;;5013667;28;20222;-71
2022/07/20 16:21:34;;;;;;;1999.90;999.90;;;;;;;;;;5014049;28;20223;-71
2022/07/20 16:24:19;;;;;;;1999.90;999.90;;;;;;;;;;5013930;28;20198;-71
2022/07/20 16:27:04;;;;;;;1999.90;999.90;;;;;;;;;;5012947;28;20340;-72
2022/07/20 16:29:51;;;;;;;1999.90;999.90;;;;;;;;;;5006884;28;20338;-71
2022/07/20 16:32:36;;;;;;;1999.90;999.90;;;;;;;;;;4998932;28;20222;-71
2022/07/20 16:35:21;;;;;;;1999.90;999.90;;;;;;;;;;4999102;28;20576;-71
2022/07/20 16:38:05;;;;;;;1999.90;999.90;;;;;;;;;;5007696;28;20213;-71
2022/07/20 16:40:50;;;;;;;1999.90;999.90;;;;;;;;;;5014792;28;20308;-71
2022/07/20 16:43:35;;;;;;;1999.90;999.90;;;;;;;;;;5018436;28;20202;-71
2022/07/20 16:46:22;;;;;;;1999.90;999.90;;;;;;;;;;5015332;28;20316;-71
2022/07/20 16:49:07;;;;;;;1999.90;999.90;;;;;;;;;;5016548;28;20214;-72
2022/07/20 16:51:52;;;;;;;1999.90;999.90;;;;;;;;;;5011467;28;20230;-72
2022/07/20 16:54:37;;;;;;;1999.90;999.90;;;;;;;;;;5016500;28;20238;-71
2022/07/20 16:57:22;;;;;;;1999.90;999.90;;;;;;;;;;5010777;28;20210;-72
2022/07/20 17:00:08;;;;;;;1999.90;999.90;;;;;;;;;;5016398;28;20207;-70
2022/07/20 17:02:54;;;;;;;1999.90;999.90;;;;;;;;;;5014981;28;20300;-72
2022/07/20 17:05:39;;;;;;;1999.90;999.90;;;;;;;;;;5011960;28;20214;-72
2022/07/20 17:08:24;;;;;;;1999.90;999.90;;;;;;;;;;5012885;28;20223;-72
2022/07/20 17:11:09;;;;;;;1999.90;999.90;;;;;;;;;;5015424;28;20728;-72
2022/07/20 17:13:55;;;;;;;1999.90;999.90;;;;;;;;;;5015615;28;20564;-72
2022/07/20 17:16:40;;;;;;;1999.90;999.90;;;;;;;;;;5018331;28;20341;-71
2022/07/20 17:19:27;;;;;;;1999.90;999.90;;;;;;;;;;5016157;28;20210;-71
2022/07/20 17:22:12;;;;;;;1999.90;999.90;;;;;;;;;;5014881;28;20599;-71
2022/07/20 17:24:58;;;;;;;1999.90;999.90;;;;;;;;;;5014302;28;20250;-71
2022/07/20 17:27:43;;;;;;;1999.90;999.90;;;;;;;;;;5015057;28;20218;-71
2022/07/20 17:30:28;;;;;;;1999.90;999.90;;;;;;;;;;5016600;28;20218;-70
2022/07/20 17:33:13;;;;;;;1999.90;999.90;;;;;;;;;;5026872;28;20202;-71
2022/07/20 17:36:00;;;;;;;1999.90;999.90;;;;;;;;;;5032625;28;20203;-71
2022/07/20 17:38:46;;;;;;;1999.90;999.90;;;;;;;;;;5036474;28;20276;-71
2022/07/20 17:41:31;;;;;;;1999.90;999.90;;;;;;;;;;5035131;28;20254;-71
2022/07/20 17:44:16;;;;;;;1999.90;999.90;;;;;;;;;;5037880;28;20210;-71
2022/07/20 17:47:01;;;;;;;1999.90;999.90;;;;;;;;;;5038345;28;20295;-71
2022/07/20 17:49:46;;;;;;;1999.90;999.90;;;;;;;;;;5028878;28;20226;-70
2022/07/20 17:52:32;;;;;;;1999.90;999.90;;;;;;;;;;5016107;28;20239;-71
2022/07/20 17:55:17;;;;;;;1999.90;999.90;;;;;;;;;;5014427;28;20289;-70
2022/07/20 17:58:04;;;;;;;1999.90;999.90;;;;;;;;;;5014154;28;20796;-71
2022/07/20 18:00:49;;;;;;;1999.90;999.90;;;;;;;;;;5014498;28;20230;-71
2022/07/20 18:03:34;;;;;;;1999.90;999.90;;;;;;;;;;5014598;28;20697;-69
2022/07/20 18:06:21;;;;;;;1999.90;999.90;;;;;;;;;;5014801;28;20345;-71
2022/07/20 18:09:08;;;;;;;1999.90;999.90;;;;;;;;;;5013926;28;20701;-71
2022/07/20 18:11:53;;;;;;;1999.90;999.90;;;;;;;;;;5014503;28;20724;-71
2022/07/20 18:14:38;;;;;;;1999.90;999.90;;;;;;;;;;5014107;28;20238;-69
2022/07/20 18:17:24;;;;;;;1999.90;999.90;;;;;;;;;;5013993;28;20202;-71
2022/07/20 18:20:09;;;;;;;1999.90;999.90;;;;;;;;;;5013999;28;20306;-70
2022/07/20 18:22:54;;;;;;;1999.90;999.90;;;;;;;;;;5014252;28;20685;-70
2022/07/20 18:25:43;;;;;;;1999.90;999.90;;;;;;;;;;5014186;28;20214;-69
2022/07/20 18:28:28;;;;;;;1999.90;999.90;;;;;;;;;;5012782;28;20578;-70
2022/07/20 18:31:13;;;;;;;1999.90;999.90;;;;;;;;;;5012209;28;20249;-70
2022/07/20 18:33:59;;;;;;;1999.90;999.90;;;;;;;;;;5005536;28;20226;-70
2022/07/20 18:36:45;;;;;;;1999.90;999.90;;;;;;;;;;5013782;28;20213;-69
2022/07/20 18:39:40;;;;;;;1999.90;999.90;;;;;;;;;;5012260;28;20737;-70
2022/07/20 18:42:26;;;;;;;1999.90;999.90;;;;;;;;;;5013984;28;20222;-70
2022/07/20 18:45:12;;;;;;;1999.90;999.90;;;;;;;;;;5014214;28;20222;-70
2022/07/20 18:47:58;;;;;;;1999.90;999.90;;;;;;;;;;5011855;28;20214;-69
2022/07/20 18:50:44;;;;;;;1999.90;999.90;;;;;;;;;;4998107;28;20777;-70
2022/07/20 18:53:29;;;;;;;1999.90;999.90;;;;;;;;;;5009508;28;21764;-69
2022/07/20 18:56:15;;;;;;;1999.90;999.90;;;;;;;;;;5004870;28;20760;-71
2022/07/20 18:59:01;;;;;;;1999.90;999.90;;;;;;;;;;5013460;28;20250;-70
2022/07/20 19:01:46;;;;;;;1999.90;999.90;;;;;;;;;;5009790;28;20635;-69
2022/07/20 19:04:32;;;;;;;1999.90;999.90;;;;;;;;;;4999150;28;20226;-69
2022/07/20 19:07:17;;;;;;;1999.90;999.90;;;;;;;;;;5009043;28;20214;-69
2022/07/20 19:10:02;;;;;;;1999.90;999.90;;;;;;;;;;5010601;28;20941;-69
2022/07/20 19:12:47;;;;;;;1999.90;999.90;;;;;;;;;;5013307;28;20210;-69
2022/07/20 19:15:34;;;;;;;1999.90;999.90;;;;;;;;;;5012122;28;20234;-69
2022/07/20 19:18:19;;;;;;;1999.90;999.90;;;;;;;;;;5004431;28;20700;-68
2022/07/20 19:21:04;;;;;;;1999.90;999.90;;;;;;;;;;5010841;28;20297;-69
2022/07/20 19:23:49;;;;;;;1999.90;999.90;;;;;;;;;;5012471;28;20345;-69
2022/07/20 19:26:35;;;;;;;1999.90;999.90;;;;;;;;;;4993738;28;20669;-69
2022/07/20 19:29:20;;;;;;;1999.90;999.90;;;;;;;;;;5003903;28;20202;-69